sensor_id;sensor_type;location;lat;lon;timestamp;P1;durP1;ratioP1;P2;durP2;ratioP2
73682;SDS011;72538;48.146;11.740;2024-01-15T00:00:00;6.97;;;5.63;;
73682;SDS011;72538;48.146;11.740;2024-01-15T00:02:26;8.37;;;5.73;;
73682;SDS011;72538;48.146;11.740;2024-01-15T00:04:52;10.47;;;6.23;;
73682;SDS011;72538;48.146;11.740;2024-01-15T00:07:18;9.00;;;6.03;;
73682;SDS011;72538;48.146;11.740;2024-01-15T00:09:44;9.60;;;5.57;;
73682;SDS011;72538;48.146;11.740;2024-01-15T00:12:11;8.07;;;5.53;;
73682;SDS011;72538;48.146;11.740;2024-01-15T00:14:37;11.07;;;6.50;;
73682;SDS011;72538;48.146;11.740;2024-01-15T00:17:03;9.63;;;5.83;;
73682;SDS011;72538;48.146;11.740;2024-01-15T00:19:30;8.97;;;6.50;;
73682;SDS011;72538;48.146;11.740;2024-01-15T00:21:58;8.10;;;5.93;;
73682;SDS011;72538;48.146;11.740;2024-01-15T00:24:25;10.07;;;6.37;;
73682;SDS011;72538;48.146;11.740;2024-01-15T00:26:51;8.70;;;6.53;;
73682;SDS011;72538;48.146;11.740;2024-01-15T00:29:17;10.70;;;6.63;;
73682;SDS011;72538;48.146;11.740;2024-01-15T00:31:43;10.87;;;6.67;;
73682;SDS011;72538;48.146;11.740;2024-01-15T00:34:09;11.03;;;6.43;;
73682;SDS011;72538;48.146;11.740;2024-01-15T00:36:36;8.83;;;6.33;;
73682;SDS011;72538;48.146;11.740;2024-01-15T00:39:02;9.07;;;6.30;;
73682;SDS011;72538;48.146;11.740;2024-01-15T00:41:30;11.03;;;6.80;;
73682;SDS011;72538;48.146;11.740;2024-01-15T00:43:57;10.67;;;7.40;;
73682;SDS011;72538;48.146;11.740;2024-01-15T00:46:23;11.33;;;7.50;;
73682;SDS011;72538;48.146;11.740;2024-01-15T00:48:49;10.10;;;6.47;;
73682;SDS011;72538;48.146;11.740;2024-01-15T00:51:15;10.37;;;6.90;;
73682;SDS011;72538;48.146;11.740;2024-01-15T00:53:41;10.13;;;6.93;;
73682;SDS011;72538;48.146;11.740;2024-01-15T00:56:07;9.70;;;7.03;;
73682;SDS011;72538;48.146;11.740;2024-01-15T00:58:33;10.23;;;7.33;;
73682;SDS011;72538;48.146;11.740;2024-01-15T01:01:03;10.27;;;7.33;;
73682;SDS011;72538;48.146;11.740;2024-01-15T01:03:29;11.97;;;7.37;;
73682;SDS011;72538;48.146;11.740;2024-01-15T01:05:55;11.90;;;7.73;;
73682;SDS011;72538;48.146;11.740;2024-01-15T01:08:21;12.73;;;7.67;;
73682;SDS011;72538;48.146;11.740;2024-01-15T01:10:47;12.60;;;8.87;;
73682;SDS011;72538;48.146;11.740;2024-01-15T01:13:13;11.77;;;8.27;;
73682;SDS011;72538;48.146;11.740;2024-01-15T01:15:40;12.30;;;9.27;;
73682;SDS011;72538;48.146;11.740;2024-01-15T01:18:06;15.20;;;8.83;;
73682;SDS011;72538;48.146;11.740;2024-01-15T01:20:32;16.50;;;9.90;;
73682;SDS011;72538;48.146;11.740;2024-01-15T01:22:58;15.07;;;9.80;;
73682;SDS011;72538;48.146;11.740;2024-01-15T01:25:24;14.50;;;10.20;;
73682;SDS011;72538;48.146;11.740;2024-01-15T01:27:50;14.90;;;10.17;;
73682;SDS011;72538;48.146;11.740;2024-01-15T01:30:16;15.10;;;9.90;;
73682;SDS011;72538;48.146;11.740;2024-01-15T01:32:43;12.57;;;9.20;;
73682;SDS011;72538;48.146;11.740;2024-01-15T01:35:09;12.17;;;9.50;;
73682;SDS011;72538;48.146;11.740;2024-01-15T01:37:35;14.97;;;9.60;;
73682;SDS011;72538;48.146;11.740;2024-01-15T01:40:01;14.80;;;10.23;;
73682;SDS011;72538;48.146;11.740;2024-01-15T01:42:27;12.93;;;9.50;;
73682;SDS011;72538;48.146;11.740;2024-01-15T01:44:53;13.50;;;9.47;;
73682;SDS011;72538;48.146;11.740;2024-01-15T01:47:19;13.77;;;9.30;;
73682;SDS011;72538;48.146;11.740;2024-01-15T01:49:46;13.23;;;8.50;;
73682;SDS011;72538;48.146;11.740;2024-01-15T01:52:12;15.10;;;9.23;;
73682;SDS011;72538;48.146;11.740;2024-01-15T01:54:39;12.50;;;9.30;;
73682;SDS011;72538;48.146;11.740;2024-01-15T01:57:06;12.27;;;8.60;;
73682;SDS011;72538;48.146;11.740;2024-01-15T01:59:33;13.40;;;8.83;;
73682;SDS011;72538;48.146;11.740;2024-01-15T02:02:00;11.50;;;7.23;;
73682;SDS011;72538;48.146;11.740;2024-01-15T02:04:27;13.50;;;8.33;;
73682;SDS011;72538;48.146;11.740;2024-01-15T02:06:53;11.47;;;8.07;;
73682;SDS011;72538;48.146;11.740;2024-01-15T02:09:20;14.50;;;8.23;;
73682;SDS011;72538;48.146;11.740;2024-01-15T02:11:46;10.47;;;7.57;;
73682;SDS011;72538;48.146;11.740;2024-01-15T02:14:13;10.83;;;7.20;;
73682;SDS011;72538;48.146;11.740;2024-01-15T02:16:39;11.73;;;7.57;;
73682;SDS011;72538;48.146;11.740;2024-01-15T02:19:06;14.13;;;8.80;;
73682;SDS011;72538;48.146;11.740;2024-01-15T02:21:32;14.73;;;7.80;;
73682;SDS011;72538;48.146;11.740;2024-01-15T02:23:59;11.63;;;7.20;;
73682;SDS011;72538;48.146;11.740;2024-01-15T02:26:26;13.57;;;8.47;;
73682;SDS011;72538;48.146;11.740;2024-01-15T02:28:52;10.97;;;7.30;;
73682;SDS011;72538;48.146;11.740;2024-01-15T02:31:19;11.67;;;7.80;;
73682;SDS011;72538;48.146;11.740;2024-01-15T02:33:45;12.83;;;7.63;;
73682;SDS011;72538;48.146;11.740;2024-01-15T02:36:14;13.37;;;7.13;;
73682;SDS011;72538;48.146;11.740;2024-01-15T02:38:42;12.20;;;7.80;;
73682;SDS011;72538;48.146;11.740;2024-01-15T02:41:08;10.43;;;7.73;;
73682;SDS011;72538;48.146;11.740;2024-01-15T02:43:34;12.77;;;8.30;;
73682;SDS011;72538;48.146;11.740;2024-01-15T02:46:01;12.07;;;7.80;;
73682;SDS011;72538;48.146;11.740;2024-01-15T02:48:27;11.30;;;7.37;;
73682;SDS011;72538;48.146;11.740;2024-01-15T02:50:53;12.93;;;7.50;;
73682;SDS011;72538;48.146;11.740;2024-01-15T02:53:19;13.20;;;7.70;;
73682;SDS011;72538;48.146;11.740;2024-01-15T02:55:45;12.90;;;8.20;;
73682;SDS011;72538;48.146;11.740;2024-01-15T02:58:11;12.13;;;7.50;;
73682;SDS011;72538;48.146;11.740;2024-01-15T03:00:37;13.00;;;8.27;;
73682;SDS011;72538;48.146;11.740;2024-01-15T03:03:04;12.33;;;7.80;;
73682;SDS011;72538;48.146;11.740;2024-01-15T03:05:30;11.20;;;7.13;;
73682;SDS011;72538;48.146;11.740;2024-01-15T03:07:56;12.67;;;7.77;;
73682;SDS011;72538;48.146;11.740;2024-01-15T03:10:22;11.23;;;7.70;;
73682;SDS011;72538;48.146;11.740;2024-01-15T03:12:48;11.27;;;8.00;;
73682;SDS011;72538;48.146;11.740;2024-01-15T03:15:16;11.20;;;7.23;;
73682;SDS011;72538;48.146;11.740;2024-01-15T03:17:42;11.67;;;7.57;;
73682;SDS011;72538;48.146;11.740;2024-01-15T03:20:09;11.83;;;8.17;;
73682;SDS011;72538;48.146;11.740;2024-01-15T03:22:35;11.80;;;7.70;;
73682;SDS011;72538;48.146;11.740;2024-01-15T03:25:01;14.20;;;8.00;;
73682;SDS011;72538;48.146;11.740;2024-01-15T03:27:28;12.87;;;7.60;;
73682;SDS011;72538;48.146;11.740;2024-01-15T03:29:54;11.20;;;7.00;;
73682;SDS011;72538;48.146;11.740;2024-01-15T03:32:20;11.07;;;8.00;;
73682;SDS011;72538;48.146;11.740;2024-01-15T03:34:46;13.43;;;8.03;;
73682;SDS011;72538;48.146;11.740;2024-01-15T03:37:13;11.13;;;7.33;;
73682;SDS011;72538;48.146;11.740;2024-01-15T03:39:39;11.90;;;7.23;;
73682;SDS011;72538;48.146;11.740;2024-01-15T03:42:06;10.37;;;7.23;;
73682;SDS011;72538;48.146;11.740;2024-01-15T03:44:32;13.27;;;7.73;;
73682;SDS011;72538;48.146;11.740;2024-01-15T03:46:58;10.83;;;7.40;;
73682;SDS011;72538;48.146;11.740;2024-01-15T03:49:24;12.30;;;7.97;;
73682;SDS011;72538;48.146;11.740;2024-01-15T03:51:50;10.10;;;6.67;;
73682;SDS011;72538;48.146;11.740;2024-01-15T03:54:17;11.00;;;6.50;;
73682;SDS011;72538;48.146;11.740;2024-01-15T03:56:43;12.90;;;7.10;;
73682;SDS011;72538;48.146;11.740;2024-01-15T03:59:09;11.33;;;7.13;;
73682;SDS011;72538;48.146;11.740;2024-01-15T04:01:35;11.23;;;7.53;;
73682;SDS011;72538;48.146;11.740;2024-01-15T04:04:01;12.33;;;7.67;;
73682;SDS011;72538;48.146;11.740;2024-01-15T04:06:27;10.90;;;7.30;;
73682;SDS011;72538;48.146;11.740;2024-01-15T04:08:53;12.77;;;7.67;;
73682;SDS011;72538;48.146;11.740;2024-01-15T04:11:19;9.83;;;6.93;;
73682;SDS011;72538;48.146;11.740;2024-01-15T04:13:45;10.23;;;7.30;;
73682;SDS011;72538;48.146;11.740;2024-01-15T04:16:12;9.90;;;6.73;;
73682;SDS011;72538;48.146;11.740;2024-01-15T04:18:38;10.60;;;7.03;;
73682;SDS011;72538;48.146;11.740;2024-01-15T04:21:04;10.43;;;7.30;;
73682;SDS011;72538;48.146;11.740;2024-01-15T04:23:32;9.27;;;6.60;;
73682;SDS011;72538;48.146;11.740;2024-01-15T04:25:58;11.33;;;6.87;;
73682;SDS011;72538;48.146;11.740;2024-01-15T04:28:24;13.17;;;6.93;;
73682;SDS011;72538;48.146;11.740;2024-01-15T04:30:50;10.80;;;7.30;;
73682;SDS011;72538;48.146;11.740;2024-01-15T04:33:17;11.33;;;6.67;;
73682;SDS011;72538;48.146;11.740;2024-01-15T04:35:43;12.00;;;7.03;;
73682;SDS011;72538;48.146;11.740;2024-01-15T04:38:09;11.40;;;7.33;;
73682;SDS011;72538;48.146;11.740;2024-01-15T04:40:35;10.70;;;6.83;;
73682;SDS011;72538;48.146;11.740;2024-01-15T04:43:01;10.57;;;7.37;;
73682;SDS011;72538;48.146;11.740;2024-01-15T04:45:27;11.13;;;6.73;;
73682;SDS011;72538;48.146;11.740;2024-01-15T04:47:54;11.17;;;7.27;;
73682;SDS011;72538;48.146;11.740;2024-01-15T04:50:22;12.07;;;6.83;;
73682;SDS011;72538;48.146;11.740;2024-01-15T04:52:49;11.50;;;7.67;;
73682;SDS011;72538;48.146;11.740;2024-01-15T04:55:15;9.60;;;6.80;;
73682;SDS011;72538;48.146;11.740;2024-01-15T04:57:41;9.67;;;6.83;;
73682;SDS011;72538;48.146;11.740;2024-01-15T05:00:08;8.90;;;6.30;;
73682;SDS011;72538;48.146;11.740;2024-01-15T05:02:34;8.87;;;6.43;;
73682;SDS011;72538;48.146;11.740;2024-01-15T05:05:00;9.83;;;7.03;;
73682;SDS011;72538;48.146;11.740;2024-01-15T05:07:26;11.17;;;7.07;;
73682;SDS011;72538;48.146;11.740;2024-01-15T05:09:53;11.73;;;7.07;;
73682;SDS011;72538;48.146;11.740;2024-01-15T05:12:19;9.93;;;7.13;;
73682;SDS011;72538;48.146;11.740;2024-01-15T05:14:45;10.10;;;6.33;;
73682;SDS011;72538;48.146;11.740;2024-01-15T05:17:11;8.97;;;5.93;;
73682;SDS011;72538;48.146;11.740;2024-01-15T05:19:37;8.40;;;6.23;;
73682;SDS011;72538;48.146;11.740;2024-01-15T05:22:03;9.37;;;6.77;;
73682;SDS011;72538;48.146;11.740;2024-01-15T05:24:29;9.07;;;6.53;;
73682;SDS011;72538;48.146;11.740;2024-01-15T05:26:55;11.30;;;6.10;;
73682;SDS011;72538;48.146;11.740;2024-01-15T05:29:21;9.60;;;6.10;;
73682;SDS011;72538;48.146;11.740;2024-01-15T05:31:48;11.60;;;6.07;;
73682;SDS011;72538;48.146;11.740;2024-01-15T05:34:14;9.47;;;6.83;;
73682;SDS011;72538;48.146;11.740;2024-01-15T05:36:40;11.03;;;6.87;;
73682;SDS011;72538;48.146;11.740;2024-01-15T05:39:06;9.50;;;6.27;;
73682;SDS011;72538;48.146;11.740;2024-01-15T05:41:32;12.80;;;6.10;;
73682;SDS011;72538;48.146;11.740;2024-01-15T05:43:58;9.90;;;6.50;;
73682;SDS011;72538;48.146;11.740;2024-01-15T05:46:24;9.50;;;6.27;;
73682;SDS011;72538;48.146;11.740;2024-01-15T05:48:50;9.93;;;5.90;;
73682;SDS011;72538;48.146;11.740;2024-01-15T05:51:16;8.67;;;5.87;;
73682;SDS011;72538;48.146;11.740;2024-01-15T05:53:43;8.73;;;5.83;;
73682;SDS011;72538;48.146;11.740;2024-01-15T05:56:10;9.23;;;6.20;;
73682;SDS011;72538;48.146;11.740;2024-01-15T05:58:37;8.60;;;5.80;;
73682;SDS011;72538;48.146;11.740;2024-01-15T06:01:03;7.53;;;5.13;;
73682;SDS011;72538;48.146;11.740;2024-01-15T06:03:30;8.50;;;6.13;;
73682;SDS011;72538;48.146;11.740;2024-01-15T06:05:56;6.93;;;5.43;;
73682;SDS011;72538;48.146;11.740;2024-01-15T06:08:22;9.57;;;6.07;;
73682;SDS011;72538;48.146;11.740;2024-01-15T06:10:48;9.30;;;6.07;;
73682;SDS011;72538;48.146;11.740;2024-01-15T06:13:14;8.90;;;5.93;;
73682;SDS011;72538;48.146;11.740;2024-01-15T06:15:40;7.93;;;5.27;;
73682;SDS011;72538;48.146;11.740;2024-01-15T06:18:06;8.17;;;5.60;;
73682;SDS011;72538;48.146;11.740;2024-01-15T06:20:33;11.07;;;6.43;;
73682;SDS011;72538;48.146;11.740;2024-01-15T06:22:59;7.87;;;5.73;;
73682;SDS011;72538;48.146;11.740;2024-01-15T06:25:25;11.40;;;5.10;;
73682;SDS011;72538;48.146;11.740;2024-01-15T06:27:51;7.07;;;5.00;;
73682;SDS011;72538;48.146;11.740;2024-01-15T06:30:17;9.17;;;5.70;;
73682;SDS011;72538;48.146;11.740;2024-01-15T06:32:43;6.90;;;4.97;;
73682;SDS011;72538;48.146;11.740;2024-01-15T06:35:09;8.30;;;5.10;;
73682;SDS011;72538;48.146;11.740;2024-01-15T06:37:37;6.63;;;4.80;;
73682;SDS011;72538;48.146;11.740;2024-01-15T06:40:04;8.20;;;4.93;;
73682;SDS011;72538;48.146;11.740;2024-01-15T06:42:31;6.73;;;4.90;;
73682;SDS011;72538;48.146;11.740;2024-01-15T06:44:57;8.33;;;5.10;;
73682;SDS011;72538;48.146;11.740;2024-01-15T06:47:24;7.23;;;5.20;;
73682;SDS011;72538;48.146;11.740;2024-01-15T06:49:50;7.00;;;4.67;;
73682;SDS011;72538;48.146;11.740;2024-01-15T06:52:17;7.20;;;4.90;;
73682;SDS011;72538;48.146;11.740;2024-01-15T06:54:43;7.83;;;5.50;;
73682;SDS011;72538;48.146;11.740;2024-01-15T06:57:10;8.00;;;4.90;;
73682;SDS011;72538;48.146;11.740;2024-01-15T06:59:36;7.47;;;5.20;;
73682;SDS011;72538;48.146;11.740;2024-01-15T07:02:02;7.20;;;4.87;;
73682;SDS011;72538;48.146;11.740;2024-01-15T07:04:28;8.87;;;5.87;;
73682;SDS011;72538;48.146;11.740;2024-01-15T07:06:54;7.90;;;4.93;;
73682;SDS011;72538;48.146;11.740;2024-01-15T07:09:20;6.53;;;4.57;;
73682;SDS011;72538;48.146;11.740;2024-01-15T07:11:47;6.70;;;4.87;;
73682;SDS011;72538;48.146;11.740;2024-01-15T07:14:13;8.10;;;4.97;;
73682;SDS011;72538;48.146;11.740;2024-01-15T07:16:40;8.03;;;5.77;;
73682;SDS011;72538;48.146;11.740;2024-01-15T07:19:06;8.80;;;5.60;;
73682;SDS011;72538;48.146;11.740;2024-01-15T07:21:32;8.77;;;5.53;;
73682;SDS011;72538;48.146;11.740;2024-01-15T07:23:58;9.27;;;5.20;;
73682;SDS011;72538;48.146;11.740;2024-01-15T07:26:24;7.17;;;5.00;;
73682;SDS011;72538;48.146;11.740;2024-01-15T07:28:51;6.73;;;5.17;;
73682;SDS011;72538;48.146;11.740;2024-01-15T07:31:17;7.83;;;5.53;;
73682;SDS011;72538;48.146;11.740;2024-01-15T07:33:43;9.67;;;5.77;;
73682;SDS011;72538;48.146;11.740;2024-01-15T07:36:09;9.60;;;5.83;;
73682;SDS011;72538;48.146;11.740;2024-01-15T07:38:35;8.50;;;4.83;;
73682;SDS011;72538;48.146;11.740;2024-01-15T07:41:01;8.43;;;5.40;;
73682;SDS011;72538;48.146;11.740;2024-01-15T07:43:28;8.37;;;5.97;;
73682;SDS011;72538;48.146;11.740;2024-01-15T07:45:54;8.27;;;6.30;;
73682;SDS011;72538;48.146;11.740;2024-01-15T07:48:20;10.43;;;6.40;;
73682;SDS011;72538;48.146;11.740;2024-01-15T07:50:46;9.60;;;6.20;;
73682;SDS011;72538;48.146;11.740;2024-01-15T07:53:12;9.27;;;5.47;;
73682;SDS011;72538;48.146;11.740;2024-01-15T07:55:38;11.63;;;5.80;;
73682;SDS011;72538;48.146;11.740;2024-01-15T07:58:05;9.60;;;6.27;;
73682;SDS011;72538;48.146;11.740;2024-01-15T08:00:31;8.23;;;5.70;;
73682;SDS011;72538;48.146;11.740;2024-01-15T08:02:57;9.40;;;6.60;;
73682;SDS011;72538;48.146;11.740;2024-01-15T08:05:24;9.90;;;6.40;;
73682;SDS011;72538;48.146;11.740;2024-01-15T08:07:50;8.67;;;6.27;;
73682;SDS011;72538;48.146;11.740;2024-01-15T08:10:18;9.03;;;6.57;;
73682;SDS011;72538;48.146;11.740;2024-01-15T08:12:45;9.30;;;6.63;;
73682;SDS011;72538;48.146;11.740;2024-01-15T08:15:11;10.07;;;6.03;;
73682;SDS011;72538;48.146;11.740;2024-01-15T08:17:37;10.97;;;6.17;;
73682;SDS011;72538;48.146;11.740;2024-01-15T08:20:03;9.30;;;6.57;;
73682;SDS011;72538;48.146;11.740;2024-01-15T08:22:31;10.90;;;6.77;;
73682;SDS011;72538;48.146;11.740;2024-01-15T08:24:57;7.70;;;6.07;;
73682;SDS011;72538;48.146;11.740;2024-01-15T08:27:23;10.53;;;6.50;;
73682;SDS011;72538;48.146;11.740;2024-01-15T08:29:49;10.60;;;5.87;;
73682;SDS011;72538;48.146;11.740;2024-01-15T08:32:15;9.20;;;5.83;;
73682;SDS011;72538;48.146;11.740;2024-01-15T08:34:41;8.87;;;5.90;;
73682;SDS011;72538;48.146;11.740;2024-01-15T08:37:08;10.83;;;6.43;;
73682;SDS011;72538;48.146;11.740;2024-01-15T08:39:34;8.67;;;6.00;;
73682;SDS011;72538;48.146;11.740;2024-01-15T08:42:02;8.43;;;5.80;;
73682;SDS011;72538;48.146;11.740;2024-01-15T08:44:29;10.00;;;6.07;;
73682;SDS011;72538;48.146;11.740;2024-01-15T08:46:55;9.23;;;6.20;;
73682;SDS011;72538;48.146;11.740;2024-01-15T08:49:21;8.13;;;5.27;;
73682;SDS011;72538;48.146;11.740;2024-01-15T08:51:47;8.00;;;5.70;;
73682;SDS011;72538;48.146;11.740;2024-01-15T08:54:14;8.90;;;5.80;;
73682;SDS011;72538;48.146;11.740;2024-01-15T08:56:40;8.43;;;5.87;;
73682;SDS011;72538;48.146;11.740;2024-01-15T08:59:06;9.17;;;5.73;;
73682;SDS011;72538;48.146;11.740;2024-01-15T09:01:32;8.87;;;6.10;;
73682;SDS011;72538;48.146;11.740;2024-01-15T09:03:58;12.07;;;6.77;;
73682;SDS011;72538;48.146;11.740;2024-01-15T09:06:25;7.63;;;5.77;;
73682;SDS011;72538;48.146;11.740;2024-01-15T09:08:51;7.80;;;5.60;;
73682;SDS011;72538;48.146;11.740;2024-01-15T09:11:17;6.40;;;5.17;;
73682;SDS011;72538;48.146;11.740;2024-01-15T09:13:43;8.10;;;5.50;;
73682;SDS011;72538;48.146;11.740;2024-01-15T09:16:09;8.73;;;5.87;;
73682;SDS011;72538;48.146;11.740;2024-01-15T09:18:35;8.23;;;5.67;;
73682;SDS011;72538;48.146;11.740;2024-01-15T09:21:03;7.97;;;5.93;;
73682;SDS011;72538;48.146;11.740;2024-01-15T09:23:29;9.17;;;6.00;;
73682;SDS011;72538;48.146;11.740;2024-01-15T09:25:55;10.43;;;5.93;;
73682;SDS011;72538;48.146;11.740;2024-01-15T09:28:22;7.73;;;5.83;;
73682;SDS011;72538;48.146;11.740;2024-01-15T09:30:49;9.17;;;6.13;;
73682;SDS011;72538;48.146;11.740;2024-01-15T09:33:15;10.43;;;5.97;;
73682;SDS011;72538;48.146;11.740;2024-01-15T09:35:41;10.93;;;6.13;;
73682;SDS011;72538;48.146;11.740;2024-01-15T09:38:07;9.93;;;6.50;;
73682;SDS011;72538;48.146;11.740;2024-01-15T09:40:33;10.00;;;5.67;;
73682;SDS011;72538;48.146;11.740;2024-01-15T09:43:00;10.30;;;6.27;;
73682;SDS011;72538;48.146;11.740;2024-01-15T09:45:26;11.23;;;6.57;;
73682;SDS011;72538;48.146;11.740;2024-01-15T09:47:53;9.33;;;6.00;;
73682;SDS011;72538;48.146;11.740;2024-01-15T09:50:19;7.53;;;5.00;;
73682;SDS011;72538;48.146;11.740;2024-01-15T09:52:46;9.90;;;5.63;;
73682;SDS011;72538;48.146;11.740;2024-01-15T09:55:12;7.33;;;4.73;;
73682;SDS011;72538;48.146;11.740;2024-01-15T09:57:39;8.97;;;6.27;;
73682;SDS011;72538;48.146;11.740;2024-01-15T10:00:05;7.67;;;5.60;;
73682;SDS011;72538;48.146;11.740;2024-01-15T10:02:32;7.03;;;4.97;;
73682;SDS011;72538;48.146;11.740;2024-01-15T10:04:58;6.33;;;4.97;;
73682;SDS011;72538;48.146;11.740;2024-01-15T10:07:25;6.83;;;5.13;;
73682;SDS011;72538;48.146;11.740;2024-01-15T10:09:51;7.33;;;5.13;;
73682;SDS011;72538;48.146;11.740;2024-01-15T10:12:17;6.03;;;4.83;;
73682;SDS011;72538;48.146;11.740;2024-01-15T10:14:43;6.00;;;4.23;;
73682;SDS011;72538;48.146;11.740;2024-01-15T10:17:12;7.27;;;4.73;;
73682;SDS011;72538;48.146;11.740;2024-01-15T10:19:40;8.53;;;4.73;;
73682;SDS011;72538;48.146;11.740;2024-01-15T10:22:08;6.73;;;4.60;;
73682;SDS011;72538;48.146;11.740;2024-01-15T10:24:37;6.87;;;4.53;;
73682;SDS011;72538;48.146;11.740;2024-01-15T10:27:06;6.37;;;4.40;;
73682;SDS011;72538;48.146;11.740;2024-01-15T10:29:33;5.83;;;4.50;;
73682;SDS011;72538;48.146;11.740;2024-01-15T10:31:59;5.37;;;4.03;;
73682;SDS011;72538;48.146;11.740;2024-01-15T10:34:25;8.93;;;4.27;;
73682;SDS011;72538;48.146;11.740;2024-01-15T10:36:52;5.80;;;4.37;;
73682;SDS011;72538;48.146;11.740;2024-01-15T10:39:24;6.83;;;4.27;;
73682;SDS011;72538;48.146;11.740;2024-01-15T10:41:50;5.67;;;4.07;;
73682;SDS011;72538;48.146;11.740;2024-01-15T10:44:19;8.40;;;4.33;;
73682;SDS011;72538;48.146;11.740;2024-01-15T10:46:45;5.17;;;3.83;;
73682;SDS011;72538;48.146;11.740;2024-01-15T10:49:13;4.10;;;3.37;;
73682;SDS011;72538;48.146;11.740;2024-01-15T10:51:39;6.17;;;3.70;;
73682;SDS011;72538;48.146;11.740;2024-01-15T10:54:06;4.27;;;3.73;;
73682;SDS011;72538;48.146;11.740;2024-01-15T10:56:36;27.00;;;16.87;;
73682;SDS011;72538;48.146;11.740;2024-01-15T10:59:03;795.87;;;379.07;;
73682;SDS011;72538;48.146;11.740;2024-01-15T11:01:30;146.00;;;60.97;;
73682;SDS011;72538;48.146;11.740;2024-01-15T11:03:56;259.57;;;84.67;;
73682;SDS011;72538;48.146;11.740;2024-01-15T11:06:24;420.90;;;128.40;;
73682;SDS011;72538;48.146;11.740;2024-01-15T11:08:52;253.03;;;76.90;;
73682;SDS011;72538;48.146;11.740;2024-01-15T11:11:20;98.67;;;31.53;;
73682;SDS011;72538;48.146;11.740;2024-01-15T11:13:47;283.83;;;79.50;;
73682;SDS011;72538;48.146;11.740;2024-01-15T11:16:15;969.97;;;371.53;;
73682;SDS011;72538;48.146;11.740;2024-01-15T11:18:42;556.27;;;195.37;;
73682;SDS011;72538;48.146;11.740;2024-01-15T11:29:00;48.47;;;29.03;;
73682;SDS011;72538;48.146;11.740;2024-01-15T11:33:55;9.47;;;6.93;;
73682;SDS011;72538;48.146;11.740;2024-01-15T11:37:00;11.00;;;9.83;;
73682;SDS011;72538;48.146;11.740;2024-01-15T11:38:49;7.10;;;4.57;;
73682;SDS011;72538;48.146;11.740;2024-01-15T11:41:15;9.10;;;7.83;;
73682;SDS011;72538;48.146;11.740;2024-01-15T11:43:41;5.20;;;4.20;;
73682;SDS011;72538;48.146;11.740;2024-01-15T11:46:11;8.77;;;6.57;;
73682;SDS011;72538;48.146;11.740;2024-01-15T11:48:45;7.50;;;3.50;;
73682;SDS011;72538;48.146;11.740;2024-01-15T11:51:11;6.03;;;3.37;;
73682;SDS011;72538;48.146;11.740;2024-01-15T11:56:12;5.30;;;3.40;;
73682;SDS011;72538;48.146;11.740;2024-01-15T11:58:38;4.17;;;3.30;;
73682;SDS011;72538;48.146;11.740;2024-01-15T12:01:04;5.23;;;3.30;;
73682;SDS011;72538;48.146;11.740;2024-01-15T12:03:31;4.57;;;3.10;;
73682;SDS011;72538;48.146;11.740;2024-01-15T12:05:58;4.60;;;3.37;;
73682;SDS011;72538;48.146;11.740;2024-01-15T12:08:26;4.30;;;3.30;;
73682;SDS011;72538;48.146;11.740;2024-01-15T12:10:53;6.27;;;3.77;;
73682;SDS011;72538;48.146;11.740;2024-01-15T12:13:19;6.83;;;3.60;;
73682;SDS011;72538;48.146;11.740;2024-01-15T12:15:46;3.87;;;3.23;;
73682;SDS011;72538;48.146;11.740;2024-01-15T12:18:15;7.80;;;3.60;;
73682;SDS011;72538;48.146;11.740;2024-01-15T12:20:41;5.73;;;3.07;;
73682;SDS011;72538;48.146;11.740;2024-01-15T12:23:12;5.27;;;3.43;;
73682;SDS011;72538;48.146;11.740;2024-01-15T12:25:39;4.53;;;2.93;;
73682;SDS011;72538;48.146;11.740;2024-01-15T12:28:06;3.97;;;3.23;;
73682;SDS011;72538;48.146;11.740;2024-01-15T12:30:33;4.43;;;2.67;;
73682;SDS011;72538;48.146;11.740;2024-01-15T12:33:05;3.83;;;2.83;;
73682;SDS011;72538;48.146;11.740;2024-01-15T12:35:34;4.70;;;3.50;;
73682;SDS011;72538;48.146;11.740;2024-01-15T12:38:01;3.50;;;2.77;;
73682;SDS011;72538;48.146;11.740;2024-01-15T12:40:28;6.03;;;3.90;;
73682;SDS011;72538;48.146;11.740;2024-01-15T12:42:54;3.27;;;2.97;;
73682;SDS011;72538;48.146;11.740;2024-01-15T12:45:21;5.13;;;3.77;;
73682;SDS011;72538;48.146;11.740;2024-01-15T12:47:47;5.30;;;3.37;;
73682;SDS011;72538;48.146;11.740;2024-01-15T12:50:13;6.43;;;4.00;;
73682;SDS011;72538;48.146;11.740;2024-01-15T12:52:40;4.73;;;2.90;;
73682;SDS011;72538;48.146;11.740;2024-01-15T12:55:07;3.47;;;2.77;;
73682;SDS011;72538;48.146;11.740;2024-01-15T12:57:34;3.23;;;2.67;;
73682;SDS011;72538;48.146;11.740;2024-01-15T13:00:00;3.53;;;2.50;;
73682;SDS011;72538;48.146;11.740;2024-01-15T13:02:26;3.60;;;3.23;;
73682;SDS011;72538;48.146;11.740;2024-01-15T13:04:52;3.47;;;2.80;;
73682;SDS011;72538;48.146;11.740;2024-01-15T13:07:20;32.63;;;18.43;;
73682;SDS011;72538;48.146;11.740;2024-01-15T13:09:46;9.03;;;5.47;;
73682;SDS011;72538;48.146;11.740;2024-01-15T13:12:12;87.93;;;47.33;;
73682;SDS011;72538;48.146;11.740;2024-01-15T13:14:38;139.07;;;67.00;;
73682;SDS011;72538;48.146;11.740;2024-01-15T13:17:04;267.40;;;126.77;;
73682;SDS011;72538;48.146;11.740;2024-01-15T13:19:32;121.33;;;58.90;;
73682;SDS011;72538;48.146;11.740;2024-01-15T13:21:59;156.03;;;76.50;;
73682;SDS011;72538;48.146;11.740;2024-01-15T13:24:26;212.37;;;102.43;;
73682;SDS011;72538;48.146;11.740;2024-01-15T13:26:52;474.30;;;177.47;;
73682;SDS011;72538;48.146;11.740;2024-01-15T13:29:18;282.50;;;112.40;;
73682;SDS011;72538;48.146;11.740;2024-01-15T13:31:45;979.33;;;415.63;;
73682;SDS011;72538;48.146;11.740;2024-01-15T13:34:12;655.77;;;281.20;;
73682;SDS011;72538;48.146;11.740;2024-01-15T13:36:38;436.80;;;193.47;;
73682;SDS011;72538;48.146;11.740;2024-01-15T13:39:04;422.37;;;145.03;;
73682;SDS011;72538;48.146;11.740;2024-01-15T13:41:33;318.23;;;111.03;;
73682;SDS011;72538;48.146;11.740;2024-01-15T13:43:59;322.80;;;112.20;;
73682;SDS011;72538;48.146;11.740;2024-01-15T13:46:25;450.27;;;165.37;;
73682;SDS011;72538;48.146;11.740;2024-01-15T13:48:55;190.53;;;71.23;;
73682;SDS011;72538;48.146;11.740;2024-01-15T13:51:22;362.53;;;123.80;;
73682;SDS011;72538;48.146;11.740;2024-01-15T13:53:48;228.13;;;86.80;;
73682;SDS011;72538;48.146;11.740;2024-01-15T13:56:14;203.13;;;68.37;;
73682;SDS011;72538;48.146;11.740;2024-01-15T13:58:41;233.60;;;91.03;;
73682;SDS011;72538;48.146;11.740;2024-01-15T14:01:07;403.10;;;176.50;;
73682;SDS011;72538;48.146;11.740;2024-01-15T14:03:34;308.57;;;138.80;;
73682;SDS011;72538;48.146;11.740;2024-01-15T14:06:00;31.83;;;21.30;;
73682;SDS011;72538;48.146;11.740;2024-01-15T14:08:26;82.80;;;41.33;;
73682;SDS011;72538;48.146;11.740;2024-01-15T14:10:53;85.83;;;46.50;;
73682;SDS011;72538;48.146;11.740;2024-01-15T14:13:20;79.33;;;45.13;;
73682;SDS011;72538;48.146;11.740;2024-01-15T14:15:46;87.63;;;53.50;;
73682;SDS011;72538;48.146;11.740;2024-01-15T14:18:14;35.33;;;23.40;;
73682;SDS011;72538;48.146;11.740;2024-01-15T14:20:40;42.07;;;27.93;;
73682;SDS011;72538;48.146;11.740;2024-01-15T14:23:07;62.80;;;44.57;;
73682;SDS011;72538;48.146;11.740;2024-01-15T14:25:33;8.73;;;7.03;;
73682;SDS011;72538;48.146;11.740;2024-01-15T14:28:00;5.73;;;5.20;;
73682;SDS011;72538;48.146;11.740;2024-01-15T14:30:26;8.73;;;7.57;;
73682;SDS011;72538;48.146;11.740;2024-01-15T14:32:52;6.07;;;5.37;;